createdAt,value
2019-04-16T00:01:50.826Z,10.53
2019-04-16T00:04:38.135Z,10.27
2019-04-16T00:07:25.903Z,10.83
2019-04-16T00:10:23.901Z,11.30
2019-04-16T00:13:08.134Z,10.67
2019-04-16T00:15:40.942Z,10.73
2019-04-16T00:18:09.267Z,11.20
2019-04-16T00:20:48.855Z,10.83
2019-04-16T00:23:27.217Z,11.03
2019-04-16T00:25:57.867Z,10.40
2019-04-16T00:28:30.471Z,10.70
2019-04-16T00:30:59.265Z,10.27
2019-04-16T00:33:29.163Z,10.17
2019-04-16T00:35:58.979Z,11.23
2019-04-16T00:38:40.053Z,11.20
2019-04-16T00:41:01.369Z,10.13
2019-04-16T00:43:31.669Z,10.17
2019-04-16T00:46:01.437Z,10.45
2019-04-16T00:48:31.410Z,10.50
2019-04-16T00:51:01.324Z,10.63
2019-04-16T00:53:29.793Z,10.27
2019-04-16T00:55:58.084Z,10.50
2019-04-16T00:58:28.006Z,11.00
2019-04-16T01:00:57.666Z,10.93
2019-04-16T01:03:27.325Z,10.70
2019-04-16T01:05:57.143Z,10.90
2019-04-16T01:08:26.820Z,11.27
2019-04-16T01:10:56.636Z,10.80
2019-04-16T01:13:26.933Z,11.10
2019-04-16T01:15:56.861Z,10.77
2019-04-16T01:18:26.707Z,11.20
2019-04-16T01:20:56.604Z,11.30
2019-04-16T01:23:26.744Z,10.83
2019-04-16T01:25:56.446Z,12.50
2019-04-16T01:28:31.484Z,10.63
2019-04-16T01:31:25.046Z,11.07
2019-04-16T01:34:15.287Z,10.83
2019-04-16T01:36:58.845Z,10.70
2019-04-16T01:39:29.245Z,11.13
2019-04-16T01:41:58.923Z,11.33
2019-04-16T01:44:29.626Z,11.20
2019-04-16T01:47:03.340Z,11.40
2019-04-16T01:49:31.088Z,10.50
2019-04-16T01:52:01.007Z,10.07
2019-04-16T01:54:31.852Z,11.40
2019-04-16T01:57:08.513Z,10.90
2019-04-16T01:59:38.026Z,10.77
2019-04-16T02:02:08.724Z,11.33
2019-04-16T02:04:41.942Z,10.27
2019-04-16T02:07:11.862Z,10.83
2019-04-16T02:09:41.913Z,10.30
2019-04-16T02:12:13.414Z,10.85
2019-04-16T02:14:43.184Z,10.80
2019-04-16T02:17:13.762Z,10.93
2019-04-16T02:19:44.495Z,10.87
2019-04-16T02:22:14.421Z,10.90
2019-04-16T02:24:44.071Z,9.83
2019-04-16T02:27:13.761Z,11.08
2019-04-16T02:29:43.501Z,10.87
2019-04-16T02:32:13.174Z,10.85
2019-04-16T02:34:43.013Z,10.90
2019-04-16T02:37:13.892Z,10.48
2019-04-16T02:39:48.773Z,11.13
2019-04-16T02:42:15.255Z,11.03
2019-04-16T02:47:21.267Z,11.27
2019-04-16T02:49:56.417Z,12.00
2019-04-16T02:52:37.556Z,11.33
2019-04-16T02:55:32.454Z,10.30
2019-04-16T02:58:10.295Z,11.37
2019-04-16T03:01:01.200Z,10.50
2019-04-16T03:03:50.083Z,11.38
2019-04-16T03:06:20.101Z,10.85
2019-04-16T03:08:50.608Z,10.87
2019-04-16T03:11:20.476Z,12.07
2019-04-16T03:13:52.427Z,11.20
2019-04-16T03:16:56.311Z,11.08
2019-04-16T03:19:30.878Z,11.93
2019-04-16T03:22:02.224Z,10.90
2019-04-16T03:24:32.145Z,10.70
2019-04-16T03:27:04.656Z,10.60
2019-04-16T03:29:33.964Z,10.07
2019-04-16T03:32:04.640Z,11.20
2019-04-16T03:34:34.564Z,10.70
2019-04-16T03:37:05.347Z,10.32
2019-04-16T03:39:35.290Z,10.47
2019-04-16T03:42:05.782Z,10.50
2019-04-16T03:44:37.286Z,10.27
2019-04-16T03:47:07.092Z,10.63
2019-04-16T03:49:36.764Z,10.60
2019-04-16T03:52:08.434Z,10.50
2019-04-16T03:54:38.810Z,10.80
2019-04-16T03:57:09.683Z,9.93
2019-04-16T03:59:40.687Z,10.93
2019-04-16T04:02:10.515Z,11.53
2019-04-16T04:04:40.268Z,10.30
2019-04-16T04:07:12.019Z,10.00
2019-04-16T04:09:41.315Z,10.57
2019-04-16T04:12:13.318Z,10.60
2019-04-16T04:14:42.338Z,10.57
2019-04-16T04:17:12.299Z,10.60
2019-04-16T04:19:43.534Z,10.40
2019-04-16T04:22:13.704Z,10.30
2019-04-16T04:24:43.579Z,10.80
2019-04-16T04:27:18.671Z,10.98
2019-04-16T04:29:46.618Z,11.03
2019-04-16T04:32:16.313Z,12.10
2019-04-16T04:34:48.572Z,11.20
2019-04-16T04:37:17.481Z,11.18
2019-04-16T04:39:47.149Z,10.03
2019-04-16T04:42:19.364Z,11.05
2019-04-16T04:44:48.794Z,10.37
2019-04-16T04:47:20.200Z,10.35
2019-04-16T04:49:51.093Z,12.33
2019-04-16T04:52:20.751Z,11.38
2019-04-16T04:54:51.399Z,11.53
2019-04-16T04:57:21.802Z,11.45
2019-04-16T04:59:51.582Z,11.00
2019-04-16T05:02:22.275Z,12.27
2019-04-16T05:04:57.133Z,10.53
2019-04-16T05:07:29.071Z,11.67
2019-04-16T05:09:58.173Z,11.13
2019-04-16T05:12:27.839Z,10.93
2019-04-16T05:14:58.777Z,10.50
2019-04-16T05:17:30.012Z,10.97
2019-04-16T05:19:59.806Z,10.33
2019-04-16T05:22:33.005Z,10.67
2019-04-16T05:25:01.583Z,11.23
2019-04-16T05:27:31.009Z,11.37
2019-04-16T05:29:59.344Z,10.87
2019-04-16T05:32:32.734Z,11.33
2019-04-16T05:34:59.433Z,11.33
2019-04-16T05:37:31.949Z,11.07
2019-04-16T05:40:01.617Z,10.53
2019-04-16T05:42:31.282Z,10.97
2019-04-16T05:45:02.490Z,9.90
2019-04-16T05:47:32.537Z,10.87
2019-04-16T05:50:02.307Z,11.80
2019-04-16T05:52:32.294Z,11.33
2019-04-16T05:55:21.456Z,11.57
2019-04-16T05:57:51.750Z,10.50
2019-04-16T06:00:30.899Z,10.93
2019-04-16T06:03:00.609Z,11.00
2019-04-16T06:05:30.271Z,10.47
2019-04-16T06:08:10.123Z,10.47
2019-04-16T06:10:40.155Z,10.83
2019-04-16T06:13:27.523Z,10.97
2019-04-16T06:16:12.533Z,10.13
2019-04-16T06:18:52.942Z,9.97
2019-04-16T06:21:39.810Z,10.20
2019-04-16T06:24:35.863Z,9.93
2019-04-16T06:27:28.459Z,10.80
2019-04-16T06:30:14.932Z,10.70
2019-04-16T06:32:56.816Z,10.63
2019-04-16T06:35:44.348Z,10.17
2019-04-16T06:38:16.952Z,9.93
2019-04-16T06:41:03.394Z,10.87
2019-04-16T06:43:37.653Z,10.57
2019-04-16T06:46:25.098Z,10.20
2019-04-16T06:49:14.351Z,10.03
2019-04-16T06:52:03.543Z,9.23
2019-04-16T06:54:50.863Z,10.70
2019-04-16T06:57:30.941Z,10.63
2019-04-16T07:00:18.916Z,9.33
2019-04-16T07:03:26.166Z,10.07
2019-04-16T07:06:11.949Z,9.90
2019-04-16T07:08:55.114Z,9.93
2019-04-16T07:11:24.928Z,10.07
2019-04-16T07:13:54.721Z,12.23
2019-04-16T07:16:27.904Z,10.23
2019-04-16T07:18:53.514Z,9.93
2019-04-16T07:21:22.050Z,9.67
2019-04-16T07:23:55.972Z,9.97
2019-04-16T07:26:20.615Z,10.07
2019-04-16T07:28:59.017Z,9.80
2019-04-16T07:31:52.134Z,9.97
2019-04-16T07:34:44.413Z,8.80
2019-04-16T07:37:33.066Z,8.87
2019-04-16T07:40:10.543Z,9.20
2019-04-16T07:43:15.579Z,9.40
2019-04-16T07:45:49.395Z,9.80
2019-04-16T07:48:36.152Z,10.25
2019-04-16T07:51:17.028Z,9.60
2019-04-16T07:54:18.807Z,9.80
2019-04-16T07:56:50.689Z,10.07
2019-04-16T07:59:20.759Z,10.13
2019-04-16T08:01:50.721Z,10.53
2019-04-16T08:04:28.709Z,10.70
2019-04-16T08:06:52.993Z,9.77
2019-04-16T08:09:22.921Z,11.13
2019-04-16T08:11:52.842Z,10.63
2019-04-16T08:14:22.740Z,9.95
2019-04-16T08:16:52.397Z,10.90
2019-04-16T08:19:35.761Z,10.33
2019-04-16T08:21:53.738Z,10.00
2019-04-16T08:24:28.950Z,9.43
2019-04-16T08:26:58.723Z,10.33
2019-04-16T08:29:28.406Z,10.13
2019-04-16T08:31:58.072Z,9.87
2019-04-16T08:34:27.750Z,11.10
2019-04-16T08:36:57.414Z,10.13
2019-04-16T08:39:27.094Z,10.73
2019-04-16T08:41:56.779Z,10.30
2019-04-16T08:44:26.640Z,12.13
2019-04-16T08:46:58.639Z,10.67
2019-04-16T08:49:28.106Z,11.97
2019-04-16T08:51:58.148Z,11.00
2019-04-16T08:54:28.045Z,10.57
2019-04-16T08:56:56.854Z,10.70
2019-04-16T08:59:25.693Z,11.47
2019-04-16T09:01:55.246Z,10.80
2019-04-16T09:04:25.394Z,11.13
2019-04-16T09:06:54.381Z,10.90
2019-04-16T09:09:24.678Z,11.13
2019-04-16T09:11:53.936Z,10.07
2019-04-16T09:14:25.679Z,10.80
2019-04-16T09:16:53.313Z,11.10
2019-04-16T09:19:22.367Z,11.38
2019-04-16T09:21:51.170Z,10.53
2019-04-16T09:24:18.597Z,10.67
2019-04-16T09:26:46.132Z,10.33
2019-04-16T09:29:13.839Z,10.97
2019-04-16T09:31:41.266Z,11.07
2019-04-16T09:34:08.750Z,10.23
2019-04-16T09:36:36.175Z,10.70
2019-04-16T09:39:03.623Z,10.80
2019-04-16T09:41:38.774Z,10.67
2019-04-16T09:44:08.979Z,11.30
2019-04-16T09:46:53.839Z,12.30
2019-04-16T09:49:10.213Z,11.70
2019-04-16T09:51:40.187Z,11.13
2019-04-16T09:54:13.410Z,11.47
2019-04-16T09:56:41.735Z,10.87
2019-04-16T09:59:31.097Z,10.53
2019-04-16T10:02:13.006Z,11.37
2019-04-16T10:04:42.828Z,11.33
2019-04-16T10:07:12.826Z,9.93
2019-04-16T10:09:42.586Z,12.60
2019-04-16T10:12:12.862Z,12.47
2019-04-16T10:14:42.599Z,10.90
2019-04-16T10:17:12.347Z,11.47
2019-04-16T10:19:43.296Z,11.97
2019-04-16T10:22:13.892Z,10.73
2019-04-16T10:25:01.484Z,11.87
2019-04-16T10:27:37.101Z,11.83
2019-04-16T10:30:17.399Z,12.03
2019-04-16T10:32:48.565Z,12.60
2019-04-16T10:35:18.772Z,12.03
2019-04-16T10:37:48.496Z,12.60
2019-04-16T10:40:26.543Z,12.13
2019-04-16T10:43:14.810Z,11.63
2019-04-16T10:45:52.909Z,12.67
2019-04-16T10:48:34.678Z,13.17
2019-04-16T10:51:41.511Z,12.68
2019-04-16T10:54:19.379Z,11.97
2019-04-16T10:57:15.270Z,12.70
2019-04-16T10:59:51.514Z,12.57
2019-04-16T11:02:44.195Z,12.40
2019-04-16T11:05:35.904Z,13.80
2019-04-16T11:08:07.482Z,13.13
2019-04-16T11:10:37.260Z,12.40
2019-04-16T11:13:09.302Z,13.00
2019-04-16T11:15:39.046Z,13.30
2019-04-16T11:18:08.706Z,12.10
2019-04-16T11:20:38.513Z,12.70
2019-04-16T11:23:08.772Z,13.13
2019-04-16T11:25:38.564Z,13.20
2019-04-16T11:28:08.638Z,13.33
2019-04-16T11:30:43.431Z,12.90
2019-04-16T11:33:13.106Z,13.78
2019-04-16T11:35:42.946Z,13.57
2019-04-16T11:38:12.616Z,13.07
2019-04-16T11:40:41.318Z,12.87
2019-04-16T11:43:11.556Z,12.80
2019-04-16T11:45:41.290Z,13.30
2019-04-16T11:48:11.223Z,12.97
2019-04-16T11:50:41.191Z,13.80
2019-04-16T11:53:10.925Z,13.87
2019-04-16T11:55:40.631Z,13.77
2019-04-16T11:58:29.313Z,13.18
2019-04-16T12:01:04.803Z,13.17
2019-04-16T12:03:46.837Z,14.60
2019-04-16T12:06:34.283Z,13.40
2019-04-16T12:09:29.382Z,14.18
2019-04-16T12:12:18.216Z,13.67
2019-04-16T12:15:01.262Z,14.00
2019-04-16T12:17:42.765Z,14.10
2019-04-16T12:20:21.816Z,14.40
2019-04-16T12:23:02.196Z,14.20
2019-04-16T12:25:50.836Z,14.90
2019-04-16T12:28:30.778Z,13.63
2019-04-16T12:31:05.587Z,15.45
2019-04-16T12:33:56.668Z,15.20
2019-04-16T12:36:52.122Z,14.80
2019-04-16T12:39:46.886Z,15.40
2019-04-16T12:42:20.664Z,14.98
2019-04-16T12:44:52.451Z,15.43
2019-04-16T12:47:37.676Z,15.65
2019-04-16T12:50:24.066Z,14.50
2019-04-16T12:53:12.940Z,14.27
2019-04-16T12:56:07.367Z,15.50
2019-04-16T12:58:58.791Z,15.20
2019-04-16T13:02:05.822Z,15.23
2019-04-16T13:04:50.039Z,15.57
2019-04-16T13:07:30.452Z,16.80
2019-04-16T13:10:07.433Z,16.17
2019-04-16T13:12:54.778Z,16.47
2019-04-16T13:15:46.599Z,15.30
2019-04-16T13:18:41.247Z,16.07
2019-04-16T13:21:19.444Z,15.90
2019-04-16T13:23:56.446Z,16.03
2019-04-16T13:26:45.694Z,15.57
2019-04-16T13:29:29.017Z,15.80
2019-04-16T13:31:54.727Z,16.33
2019-04-16T13:34:25.371Z,15.80
2019-04-16T13:36:59.330Z,16.50
2019-04-16T13:39:45.744Z,16.93
2019-04-16T13:42:15.514Z,16.35
2019-04-16T13:44:48.499Z,16.03
2019-04-16T13:47:18.510Z,16.30
2019-04-16T13:50:03.304Z,16.03
2019-04-16T13:52:33.486Z,16.40
2019-04-16T13:55:16.675Z,15.93
2019-04-16T13:57:54.930Z,17.07
2019-04-16T14:00:33.571Z,17.07
2019-04-16T14:03:09.378Z,17.20
2019-04-16T14:05:42.714Z,16.40
2019-04-16T14:08:11.542Z,15.73
2019-04-16T14:10:43.346Z,16.97
2019-04-16T14:13:14.063Z,16.70
2019-04-16T14:15:45.128Z,16.53
2019-04-16T14:18:14.768Z,17.20
2019-04-16T14:20:44.488Z,17.40
2019-04-16T14:23:15.448Z,15.77
2019-04-16T14:25:45.105Z,16.93
2019-04-16T14:28:17.926Z,16.52
2019-04-16T14:30:49.137Z,16.90
2019-04-16T14:33:27.106Z,16.80
2019-04-16T14:35:57.968Z,16.83
2019-04-16T14:38:36.748Z,16.90
2019-04-16T14:41:06.434Z,17.17
2019-04-16T14:43:39.159Z,17.33
2019-04-16T14:46:09.785Z,18.20
2019-04-16T14:48:45.488Z,17.73
2019-04-16T14:51:11.161Z,17.57
2019-04-16T14:53:56.842Z,18.17
2019-04-16T14:56:41.199Z,17.30
2019-04-16T14:59:34.461Z,17.80
2019-04-16T15:02:07.870Z,17.27
2019-04-16T15:04:57.775Z,18.73
2019-04-16T15:07:43.955Z,18.93
2019-04-16T15:10:35.174Z,18.80
2019-04-16T15:13:26.994Z,18.60
2019-04-16T15:16:10.813Z,18.83
2019-04-16T15:18:50.078Z,17.63
2019-04-16T15:21:43.976Z,18.43
2019-04-16T15:24:22.678Z,18.15
2019-04-16T15:27:28.227Z,18.70
2019-04-16T15:30:15.702Z,18.80
2019-04-16T15:33:07.318Z,18.17
2019-04-16T15:35:57.298Z,17.27
2019-04-16T15:38:45.863Z,19.60
2019-04-16T15:41:22.506Z,18.37
2019-04-16T15:44:09.985Z,19.10
2019-04-16T15:46:57.643Z,19.93
2019-04-16T15:49:45.026Z,18.83
2019-04-16T15:52:32.272Z,18.90
2019-04-16T15:55:14.147Z,17.80
2019-04-16T15:58:04.711Z,19.17
2019-04-16T16:00:46.144Z,18.27
2019-04-16T16:03:39.402Z,18.67
2019-04-16T16:06:12.498Z,19.07
2019-04-16T16:08:52.719Z,18.07
2019-04-16T16:11:26.861Z,19.00
2019-04-16T16:14:00.281Z,18.10
2019-04-16T16:16:41.767Z,19.10
2019-04-16T16:19:03.099Z,18.77
2019-04-16T16:21:33.755Z,19.47
2019-04-16T16:24:07.956Z,19.87
2019-04-16T16:26:35.234Z,17.77
2019-04-16T16:29:06.392Z,19.17
2019-04-16T16:31:36.299Z,18.63
2019-04-16T16:34:08.707Z,17.93
2019-04-16T16:36:40.453Z,19.33
2019-04-16T16:39:08.012Z,18.05
2019-04-16T16:41:38.299Z,18.63
2019-04-16T16:44:06.970Z,18.82
2019-04-16T16:47:11.695Z,18.60
2019-04-16T16:49:41.700Z,20.37
2019-04-16T16:52:31.149Z,19.45
2019-04-16T16:55:02.553Z,18.37
2019-04-16T16:57:44.623Z,19.03
2019-04-16T17:00:24.023Z,19.87
2019-04-16T17:03:13.306Z,19.62
2019-04-16T17:05:43.167Z,18.93
2019-04-16T17:08:13.414Z,20.30
2019-04-16T17:10:44.243Z,20.33
2019-04-16T17:13:17.020Z,19.27
2019-04-16T17:15:45.838Z,20.40
2019-04-16T17:18:15.819Z,19.33
2019-04-16T17:20:50.037Z,19.67
2019-04-16T17:23:20.025Z,19.60
2019-04-16T17:25:51.850Z,20.33
2019-04-16T17:28:21.938Z,20.17
2019-04-16T17:30:52.059Z,20.07
2019-04-16T17:33:22.674Z,19.73
2019-04-16T17:35:52.961Z,19.30
2019-04-16T17:38:23.798Z,19.87
2019-04-16T17:40:59.857Z,20.03
2019-04-16T17:43:41.261Z,19.95
2019-04-16T17:46:29.008Z,19.03
2019-04-16T17:49:19.616Z,20.80
2019-04-16T17:52:19.489Z,18.67
2019-04-16T17:55:06.827Z,19.13
2019-04-16T17:57:48.292Z,20.07
2019-04-16T18:00:34.683Z,19.40
2019-04-16T18:03:16.274Z,19.43
2019-04-16T18:05:59.822Z,19.37
2019-04-16T18:09:01.927Z,19.10
2019-04-16T18:11:44.720Z,19.90
2019-04-16T18:14:48.706Z,18.92
2019-04-16T18:17:47.001Z,19.05
2019-04-16T18:20:25.652Z,18.57
2019-04-16T18:23:20.142Z,19.97
2019-04-16T18:26:07.818Z,19.07
2019-04-16T18:28:44.038Z,19.93
2019-04-16T18:31:48.583Z,20.17
2019-04-16T18:34:33.183Z,20.07
2019-04-16T18:37:29.171Z,19.17
2019-04-16T18:40:08.941Z,19.85
2019-04-16T18:42:52.014Z,18.40
2019-04-16T18:45:39.625Z,18.40
2019-04-16T18:48:15.364Z,19.80
2019-04-16T18:50:45.703Z,18.67
2019-04-16T18:53:16.479Z,19.50
2019-04-16T18:55:46.723Z,20.23
2019-04-16T18:58:16.690Z,19.53
2019-04-16T19:00:49.032Z,20.93
2019-04-16T19:03:19.041Z,19.80
2019-04-16T19:05:48.957Z,19.73
2019-04-16T19:08:18.946Z,19.67
2019-04-16T19:10:49.355Z,19.90
2019-04-16T19:13:20.449Z,18.40
2019-04-16T19:15:50.448Z,18.93
2019-04-16T19:18:20.705Z,18.40
2019-04-16T19:20:52.568Z,20.17
2019-04-16T19:23:22.866Z,19.17
2019-04-16T19:25:55.403Z,19.67
2019-04-16T19:28:24.906Z,20.00
2019-04-16T19:30:55.159Z,18.70
2019-04-16T19:33:25.016Z,19.25
2019-04-16T19:35:57.678Z,20.40
2019-04-16T19:38:27.737Z,20.40
2019-04-16T19:41:06.297Z,19.57
2019-04-16T19:43:39.118Z,20.57
2019-04-16T19:46:09.006Z,18.90
2019-04-16T19:48:38.674Z,19.03
2019-04-16T19:51:09.064Z,20.37
2019-04-16T19:53:37.736Z,21.43
2019-04-16T19:56:06.124Z,20.00
2019-04-16T19:58:40.635Z,20.17
2019-04-16T20:01:12.025Z,19.77
2019-04-16T20:03:43.525Z,20.30
2019-04-16T20:06:13.628Z,20.12
2019-04-16T20:08:52.251Z,21.53
2019-04-16T20:11:25.071Z,20.23
2019-04-16T20:13:54.967Z,20.90
2019-04-16T20:16:30.750Z,20.27
2019-04-16T20:19:15.061Z,19.10
2019-04-16T20:21:56.408Z,20.33
2019-04-16T20:24:26.103Z,19.03
2019-04-16T20:26:55.978Z,21.77
2019-04-16T20:29:25.647Z,21.33
2019-04-16T20:31:55.622Z,20.87
2019-04-16T20:34:25.650Z,21.10
2019-04-16T20:36:56.784Z,20.40
2019-04-16T20:39:26.983Z,20.20
2019-04-16T20:41:59.255Z,21.17
2019-04-16T20:44:28.377Z,20.80
2019-04-16T20:47:02.332Z,21.03
2019-04-16T20:49:31.243Z,20.77
2019-04-16T20:52:02.530Z,20.60
2019-04-16T20:54:33.527Z,19.77
2019-04-16T20:57:03.272Z,20.73
2019-04-16T20:59:36.047Z,20.93
2019-04-16T21:02:05.274Z,19.20
2019-04-16T21:04:35.013Z,21.77
2019-04-16T21:07:05.019Z,22.43
2019-04-16T21:09:34.917Z,22.02
2019-04-16T21:12:12.882Z,21.33
2019-04-16T21:14:41.294Z,20.20
2019-04-16T21:17:19.469Z,20.53
2019-04-16T21:19:50.181Z,19.57
2019-04-16T21:22:20.096Z,18.83
2019-04-16T21:24:50.088Z,18.07
2019-04-16T21:27:21.146Z,19.53
2019-04-16T21:29:51.120Z,21.60
2019-04-16T21:32:49.807Z,19.77
2019-04-16T21:35:48.036Z,19.12
2019-04-16T21:38:23.937Z,19.75
2019-04-16T21:40:56.379Z,19.37
2019-04-16T21:43:26.025Z,18.63
2019-04-16T21:45:55.701Z,19.93
2019-04-16T21:48:27.036Z,19.93
2019-04-16T21:50:57.129Z,19.37
2019-04-16T21:53:27.943Z,19.93
2019-04-16T21:55:58.579Z,17.23
2019-04-16T21:58:28.264Z,19.87
2019-04-16T22:01:05.132Z,19.27
2019-04-16T22:03:41.759Z,19.80
2019-04-16T22:06:07.659Z,20.27
2019-04-16T22:08:37.410Z,19.23
2019-04-16T22:11:08.531Z,19.93
2019-04-16T22:13:38.481Z,20.30
2019-04-16T22:16:08.488Z,18.93
2019-04-16T22:18:41.603Z,21.20
2019-04-16T22:21:11.171Z,19.10
2019-04-16T22:23:40.976Z,18.80
2019-04-16T22:26:11.119Z,20.35
2019-04-16T22:28:44.198Z,19.43
2019-04-16T22:31:12.727Z,19.00
2019-04-16T22:33:42.388Z,18.40
2019-04-16T22:36:12.065Z,20.25
2019-04-16T22:38:45.376Z,18.83
2019-04-16T22:41:23.539Z,19.10
2019-04-16T22:44:28.340Z,19.60
2019-04-16T22:47:03.182Z,19.47
2019-04-16T22:49:32.977Z,18.12
2019-04-16T22:52:02.858Z,18.53
2019-04-16T22:54:32.765Z,19.17
2019-04-16T22:57:06.913Z,17.13
2019-04-16T22:59:39.356Z,19.73
2019-04-16T23:02:13.794Z,18.73
2019-04-16T23:04:43.834Z,18.57
2019-04-16T23:07:13.507Z,18.23
2019-04-16T23:09:45.735Z,18.90
2019-04-16T23:12:14.777Z,19.40
2019-04-16T23:14:44.684Z,19.80
2019-04-16T23:17:15.930Z,18.63
2019-04-16T23:19:45.835Z,16.87
2019-04-16T23:22:15.536Z,18.65
2019-04-16T23:24:45.413Z,17.97
2019-04-16T23:27:15.171Z,18.77
2019-04-16T23:29:47.544Z,17.17
2019-04-16T23:32:16.556Z,19.07
2019-04-16T23:34:46.450Z,17.20
2019-04-16T23:37:16.138Z,19.40
2019-04-16T23:39:45.842Z,18.27
2019-04-16T23:42:18.767Z,20.07
2019-04-16T23:45:09.284Z,20.37
2019-04-16T23:47:48.902Z,19.50
2019-04-16T23:50:26.686Z,19.90
2019-04-16T23:53:12.496Z,19.33
2019-04-16T23:55:58.378Z,19.53
2019-04-16T23:58:34.042Z,20.33
